Time;durP1;ratioP1;P1;durP2;ratioP2;P2;SDS_P1;SDS_P2;PMS_P1;PMS_P2;Temp;Humidity;BMP_temperature;BMP_pressure;BME280_temperature;BME280_humidity;BME280_pressure;Samples;Min_cycle;Max_cycle;Signal;HPM_P1;HPM_P2
2023/01/07 08:56:21;;;;;;;;;44.00;39.00;;;;;;;;5029202;27;13498;-70
2023/01/07 08:58:47;;;;;;;;;50.67;40.33;;;;;;;;5050898;22;12911;-67
2023/01/07 09:01:12;;;;;;;;;49.00;41.67;;;;;;;;5026287;28;8810;-67
2023/01/07 09:03:37;;;;;;;;;60.00;44.00;;;;;;;;5026513;28;9001;-66
2023/01/07 09:06:03;;;;;;;;;53.33;45.00;;;;;;;;5026231;28;8988;-67
2023/01/07 09:08:28;;;;;;;;;57.33;47.33;;;;;;;;5026133;28;8814;-67
2023/01/07 09:10:56;;;;;;;;;58.67;47.33;;;;;;;;5025819;28;8802;-69
2023/01/07 09:13:21;;;;;;;;;62.67;50.00;;;;;;;;5026133;28;8810;-68
2023/01/07 09:15:46;;;;;;;;;66.67;55.67;;;;;;;;5025824;28;8940;-67
2023/01/07 09:18:11;;;;;;;;;61.67;45.67;;;;;;;;5026041;28;8806;-69
2023/01/07 09:20:37;;;;;;;;;62.00;52.00;;;;;;;;5022619;28;8834;-66
2023/01/07 09:23:03;;;;;;;;;63.33;51.67;;;;;;;;5025870;28;8814;-66
2023/01/07 09:25:28;;;;;;;;;60.67;45.67;;;;;;;;5025982;28;8810;-67
2023/01/07 09:27:53;;;;;;;;;53.67;41.33;;;;;;;;5025889;28;8803;-67
2023/01/07 09:30:18;;;;;;;;;49.50;40.50;;;;;;;;5025875;28;8790;-67
2023/01/07 09:32:44;;;;;;;;;49.67;41.67;;;;;;;;5023940;28;8834;-70
2023/01/07 09:35:10;;;;;;;;;54.33;43.67;;;;;;;;4981402;28;8851;-68
2023/01/07 09:37:35;;;;;;;;;56.00;46.33;;;;;;;;5023995;28;8845;-68
2023/01/07 09:40:00;;;;;;;;;51.00;41.33;;;;;;;;5025270;28;8826;-67
2023/01/07 09:42:36;;;;;;;;;52.25;40.50;;;;;;;;5025456;28;8948;-66
2023/01/07 09:45:12;;;;;;;;;50.00;44.00;;;;;;;;5005490;28;8873;-67
2023/01/07 09:47:40;;;;;;;;;57.67;46.00;;;;;;;;5004159;28;8994;-66
2023/01/07 09:50:18;;;;;;;;;57.00;43.33;;;;;;;;5005236;28;8836;-66
2023/01/07 09:52:46;;;;;;;;;54.33;46.67;;;;;;;;5005326;28;8789;-68
2023/01/07 09:55:31;;;;;;;;;56.00;45.00;;;;;;;;5014441;28;11619;-68
2023/01/07 09:57:57;;;;;;;;;55.00;43.67;;;;;;;;5024297;28;11598;-69
2023/01/07 10:00:23;;;;;;;;;51.00;43.00;;;;;;;;5024940;28;11654;-69
2023/01/07 10:02:48;;;;;;;;;49.00;41.67;;;;;;;;5023949;28;8918;-68
2023/01/07 10:05:32;;;;;;;;;59.00;44.75;;;;;;;;5024777;28;8950;-67
2023/01/07 10:08:15;;;;;;;;;51.33;43.67;;;;;;;;5011292;28;8973;-70
2023/01/07 10:10:44;;;;;;;;;56.25;42.00;;;;;;;;5011580;28;11514;-69
2023/01/07 10:13:19;;;;;;;;;55.00;42.50;;;;;;;;5008436;28;12329;-68
2023/01/07 10:16:02;;;;;;;;;56.00;42.00;;;;;;;;5010999;28;11630;-67
2023/01/07 10:18:33;;;;;;;;;56.00;45.00;;;;;;;;5010217;28;12303;-67
2023/01/07 10:21:01;;;;;;;;;59.33;47.00;;;;;;;;5011398;28;11714;-68
2023/01/07 10:23:30;;;;;;;;;56.00;43.33;;;;;;;;5009355;28;11607;-67
2023/01/07 10:25:57;;;;;;;;;56.33;47.00;;;;;;;;5010336;28;11582;-68
2023/01/07 10:28:28;;;;;;;;;53.33;43.00;;;;;;;;5009996;28;11727;-67
2023/01/07 10:30:54;;;;;;;;;47.00;41.67;;;;;;;;5010131;28;11584;-68
2023/01/07 10:33:23;;;;;;;;;58.33;45.67;;;;;;;;5010902;28;11690;-68
2023/01/07 10:35:52;;;;;;;;;56.33;45.67;;;;;;;;5011274;28;8822;-68
2023/01/07 10:38:18;;;;;;;;;55.50;43.00;;;;;;;;5011160;28;12461;-67
2023/01/07 10:40:50;;;;;;;;;47.75;41.25;;;;;;;;5006766;28;11713;-67
2023/01/07 10:43:15;;;;;;;;;44.00;38.67;;;;;;;;5010914;28;11666;-67
2023/01/07 10:45:40;;;;;;;;;49.75;42.00;;;;;;;;5010766;28;11572;-68
2023/01/07 10:48:15;;;;;;;;;48.75;41.75;;;;;;;;5010982;28;9603;-67
2023/01/07 10:50:49;;;;;;;;;52.25;43.50;;;;;;;;5009145;28;8867;-66
2023/01/07 10:53:29;;;;;;;;;51.33;44.00;;;;;;;;5010343;28;11566;-66
2023/01/07 10:56:07;;;;;;;;;52.67;45.67;;;;;;;;5010611;28;11583;-68
2023/01/07 10:58:36;;;;;;;;;54.00;44.00;;;;;;;;5008941;28;11569;-67
2023/01/07 11:01:02;;;;;;;;;53.25;42.75;;;;;;;;4991126;28;12262;-67
2023/01/07 11:03:27;;;;;;;;;50.50;43.50;;;;;;;;4990793;28;11701;-65
2023/01/07 11:05:55;;;;;;;;;58.00;44.33;;;;;;;;4991030;28;9614;-65
2023/01/07 11:08:50;;;;;;;;;56.33;45.33;;;;;;;;4991275;28;8804;-68
2023/01/07 11:11:17;;;;;;;;;56.67;46.33;;;;;;;;5007814;28;11678;-66
2023/01/07 11:13:50;;;;;;;;;59.67;50.00;;;;;;;;4999195;28;9046;-66
2023/01/07 11:16:21;;;;;;;;;62.67;48.33;;;;;;;;4971925;28;9537;-65
2023/01/07 11:18:56;;;;;;;;;58.33;48.67;;;;;;;;4985111;28;9315;-65
2023/01/07 11:21:38;;;;;;;;;58.00;48.67;;;;;;;;4971770;28;8814;-66
2023/01/07 11:24:30;;;;;;;;;62.33;51.00;;;;;;;;4988396;28;8802;-67
2023/01/07 11:27:11;;;;;;;;;68.67;53.67;;;;;;;;4984623;28;8795;-66
2023/01/07 11:29:42;;;;;;;;;73.00;56.67;;;;;;;;4985057;28;8818;-66
2023/01/07 11:32:19;;;;;;;;;74.33;57.33;;;;;;;;4988248;28;8817;-66
2023/01/07 11:34:50;;;;;;;;;71.67;55.00;;;;;;;;4988133;28;8814;-65
2023/01/07 11:37:32;;;;;;;;;72.67;56.00;;;;;;;;4986789;28;8937;-64
2023/01/07 11:39:58;;;;;;;;;71.00;55.00;;;;;;;;4984975;28;8814;-65
2023/01/07 11:42:39;;;;;;;;;61.33;50.33;;;;;;;;4987639;28;8852;-66
2023/01/07 11:45:11;;;;;;;;;65.00;52.67;;;;;;;;4987930;28;8908;-65
2023/01/07 11:47:38;;;;;;;;;60.00;47.67;;;;;;;;4987766;28;8915;-65
2023/01/07 11:50:04;;;;;;;;;59.33;48.00;;;;;;;;5006123;28;8814;-65
2023/01/07 11:52:30;;;;;;;;;62.33;49.00;;;;;;;;5009455;28;8908;-65
2023/01/07 11:54:56;;;;;;;;;63.67;48.33;;;;;;;;5009622;28;8833;-66
2023/01/07 11:57:23;;;;;;;;;57.25;48.25;;;;;;;;5009751;28;11573;-67
2023/01/07 12:00:03;;;;;;;;;52.25;44.50;;;;;;;;5004480;28;8854;-67
2023/01/07 12:02:28;;;;;;;;;32.75;24.75;;;;;;;;4991752;28;11700;-67
2023/01/07 12:05:14;;;;;;;;;53.00;48.25;;;;;;;;5009545;28;11565;-68
2023/01/07 12:07:43;;;;;;;;;54.00;47.50;;;;;;;;5009328;28;8798;-69
2023/01/07 12:10:23;;;;;;;;;57.50;47.50;;;;;;;;5005457;28;12427;-67
2023/01/07 12:12:48;;;;;;;;;61.25;48.75;;;;;;;;5009601;28;11568;-68
2023/01/07 12:15:23;;;;;;;;;64.00;54.33;;;;;;;;5009340;28;11596;-66
2023/01/07 12:18:07;;;;;;;;;56.33;48.00;;;;;;;;5009614;28;8941;-67
2023/01/07 12:20:41;;;;;;;;;59.67;48.00;;;;;;;;5005761;28;11559;-67
2023/01/07 12:23:31;;;;;;;;;66.33;53.00;;;;;;;;5009298;28;11549;-68
2023/01/07 12:25:56;;;;;;;;;58.33;47.67;;;;;;;;5008052;28;11659;-67
2023/01/07 12:28:41;;;;;;;;;61.00;47.33;;;;;;;;5009170;28;11802;-67
2023/01/07 12:31:26;;;;;;;;;53.25;45.75;;;;;;;;5008085;28;8800;-67
2023/01/07 12:33:54;;;;;;;;;48.25;41.75;;;;;;;;5009355;28;11540;-65
2023/01/07 12:36:29;;;;;;;;;50.25;38.50;;;;;;;;5009112;28;11598;-66
2023/01/07 12:38:56;;;;;;;;;45.00;38.25;;;;;;;;5005307;28;12320;-66
2023/01/07 12:41:24;;;;;;;;;37.00;35.50;;;;;;;;5009039;28;11559;-66
2023/01/07 12:44:01;;;;;;;;;36.00;29.00;;;;;;;;5008913;28;11559;-65
2023/01/07 12:46:29;;;;;;;;;39.75;34.50;;;;;;;;5008914;28;11773;-66
2023/01/07 12:48:55;;;;;;;;;41.50;36.00;;;;;;;;5005449;28;11575;-66
2023/01/07 12:51:24;;;;;;;;;41.00;36.25;;;;;;;;5008964;28;11573;-65
2023/01/07 12:53:55;;;;;;;;;47.25;39.25;;;;;;;;5009016;28;8865;-66
2023/01/07 12:56:26;;;;;;;;;45.25;39.50;;;;;;;;5009127;28;11585;-66
2023/01/07 12:58:57;;;;;;;;;43.75;36.25;;;;;;;;5009075;28;11590;-67
2023/01/07 13:01:33;;;;;;;;;38.25;35.25;;;;;;;;5008362;28;11556;-66
2023/01/07 13:03:58;;;;;;;;;30.25;27.25;;;;;;;;5008048;28;11730;-66
2023/01/07 13:06:23;;;;;;;;;30.75;28.25;;;;;;;;5008859;28;11666;-65
2023/01/07 13:08:53;;;;;;;;;27.75;25.00;;;;;;;;5022571;28;8846;-65
2023/01/07 13:12:41;;;;;;;;;26.25;25.00;;;;;;;;5007635;28;8850;-66
2023/01/07 13:14:04;;;;;;;;;32.67;20.67;;;;;;;;5007588;28;11544;-66
2023/01/07 13:16:30;;;;;;;;;31.50;24.25;;;;;;;;5008828;28;11560;-66
2023/01/07 13:18:55;;;;;;;;;18.50;18.50;;;;;;;;5008612;28;8792;-67
2023/01/07 13:21:21;;;;;;;;;24.50;18.00;;;;;;;;5007887;28;8796;-67
2023/01/07 13:23:55;;;;;;;;;25.75;19.25;;;;;;;;5007172;28;8812;-65
2023/01/07 13:26:29;;;;;;;;;24.50;17.50;;;;;;;;5008940;28;8784;-66
2023/01/07 13:29:14;;;;;;;;;18.75;17.00;;;;;;;;5008908;28;11524;-67
2023/01/07 13:31:39;;;;;;;;;17.75;17.75;;;;;;;;5017670;28;11545;-67
2023/01/07 13:34:23;;;;;;;;;19.75;16.25;;;;;;;;5015016;28;11547;-67
2023/01/07 13:36:55;;;;;;;;;17.00;13.00;;;;;;;;5008587;28;8829;-67
2023/01/07 13:39:37;;;;;;;;;17.75;13.75;;;;;;;;5008726;28;11536;-67
2023/01/07 13:42:02;;;;;;;;;13.25;12.00;;;;;;;;5025930;28;12274;-67
2023/01/07 13:44:30;;;;;;;;;15.50;14.50;;;;;;;;5012969;28;11616;-68
2023/01/07 13:46:56;;;;;;;;;21.00;17.00;;;;;;;;5021467;28;8840;-67
2023/01/07 13:49:21;;;;;;;;;20.00;14.00;;;;;;;;5020819;28;11572;-67
2023/01/07 13:51:47;;;;;;;;;20.50;14.50;;;;;;;;5022921;28;8827;-68
2023/01/07 13:54:12;;;;;;;;;18.75;17.25;;;;;;;;5016905;28;8830;-68
2023/01/07 13:56:38;;;;;;;;;20.75;17.25;;;;;;;;5021844;28;8815;-65
2023/01/07 13:59:03;;;;;;;;;17.50;16.50;;;;;;;;5022160;28;8826;-68
2023/01/07 14:01:31;;;;;;;;;25.00;17.50;;;;;;;;5019880;28;8829;-67
2023/01/07 14:04:02;;;;;;;;;24.50;20.00;;;;;;;;5018844;28;8839;-66
2023/01/07 14:06:28;;;;;;;;;27.25;24.25;;;;;;;;5021019;28;11560;-66
2023/01/07 14:08:58;;;;;;;;;24.75;22.00;;;;;;;;5020001;28;11649;-66
2023/01/07 14:11:29;;;;;;;;;28.00;28.00;;;;;;;;5019669;28;8824;-67
2023/01/07 14:13:55;;;;;;;;;28.50;24.75;;;;;;;;5011593;28;11657;-66
2023/01/07 14:16:24;;;;;;;;;33.75;27.50;;;;;;;;5019030;28;11620;-66
2023/01/07 14:19:08;;;;;;;;;49.75;40.50;;;;;;;;5019622;28;8844;-66
2023/01/07 14:21:33;;;;;;;;;63.67;49.33;;;;;;;;5017971;28;11593;-68
2023/01/07 14:24:17;;;;;;;;;37.00;34.00;;;;;;;;5018362;28;8826;-66
2023/01/07 14:27:08;;;;;;;;;39.25;32.00;;;;;;;;5018369;28;9545;-67
2023/01/07 14:29:50;;;;;;;;;32.00;29.00;;;;;;;;5016383;28;11555;-66
2023/01/07 14:32:24;;;;;;;;;33.00;30.75;;;;;;;;5017722;28;11584;-68
2023/01/07 14:35:00;;;;;;;;;32.75;29.00;;;;;;;;5018101;28;12368;-66
2023/01/07 14:37:31;;;;;;;;;32.00;29.00;;;;;;;;5020356;28;11657;-66
2023/01/07 14:39:56;;;;;;;;;35.50;28.50;;;;;;;;5018078;28;11557;-67
2023/01/07 14:42:26;;;;;;;;;32.00;29.00;;;;;;;;5018414;28;11622;-66
2023/01/07 14:44:51;;;;;;;;;25.00;24.50;;;;;;;;5017812;28;8793;-66
2023/01/07 14:47:35;;;;;;;;;26.00;21.00;;;;;;;;5019613;28;11641;-67
2023/01/07 14:50:19;;;;;;;;;39.25;31.50;;;;;;;;5014839;28;8844;-66
2023/01/07 14:53:04;;;;;;;;;37.00;33.75;;;;;;;;5016937;28;11639;-66
2023/01/07 14:55:29;;;;;;;;;35.00;29.50;;;;;;;;5019708;28;11589;-66
2023/01/07 14:58:14;;;;;;;;;30.00;24.00;;;;;;;;5016448;28;11591;-65
2023/01/07 15:00:48;;;;;;;;;38.25;31.50;;;;;;;;5018115;28;8812;-68
2023/01/07 15:03:23;;;;;;;;;33.50;32.50;;;;;;;;5013444;28;12381;-65
2023/01/07 15:06:07;;;;;;;;;35.75;32.50;;;;;;;;5016684;28;11563;-66
2023/01/07 15:17:40;;;;;;;;;25.00;25.00;;;;;;;;4988962;28;11546;-66
2023/01/07 15:20:05;;;;;;;;;28.00;26.75;;;;;;;;4988714;28;11611;-67
2023/01/07 15:22:39;;;;;;;;;35.50;27.50;;;;;;;;4988713;28;8789;-67
2023/01/07 15:25:17;;;;;;;;;29.50;24.75;;;;;;;;4987121;28;8912;-65
2023/01/07 15:27:51;;;;;;;;;29.50;26.50;;;;;;;;4988911;28;11590;-66
2023/01/07 15:30:16;;;;;;;;;35.00;27.75;;;;;;;;4988702;28;11592;-67
2023/01/07 15:33:04;;;;;;;;;29.25;27.50;;;;;;;;4988643;28;11620;-66
2023/01/07 15:35:36;;;;;;;;;30.75;28.25;;;;;;;;4983134;28;10205;-68
2023/01/07 15:38:03;;;;;;;;;29.25;25.50;;;;;;;;4987500;28;11531;-67
2023/01/07 15:40:29;;;;;;;;;33.25;28.50;;;;;;;;4988278;28;11816;-68
2023/01/07 15:42:56;;;;;;;;;37.00;25.75;;;;;;;;5008118;28;11662;-66
2023/01/07 15:45:22;;;;;;;;;35.00;31.00;;;;;;;;5017388;28;8811;-65
2023/01/07 15:47:48;;;;;;;;;35.25;30.75;;;;;;;;5019707;28;11553;-68
2023/01/07 15:50:24;;;;;;;;;30.00;29.75;;;;;;;;5020204;28;12447;-68
2023/01/07 15:53:14;;;;;;;;;33.25;31.00;;;;;;;;5018089;28;8807;-68
2023/01/07 15:55:48;;;;;;;;;33.00;31.00;;;;;;;;5018246;28;11782;-69
2023/01/07 15:58:16;;;;;;;;;34.25;31.50;;;;;;;;5019975;28;11596;-69
2023/01/07 16:00:41;;;;;;;;;42.75;35.75;;;;;;;;5023021;28;12297;-68
2023/01/07 16:03:07;;;;;;;;;35.75;31.75;;;;;;;;5028460;28;11634;-69
2023/01/07 16:05:35;;;;;;;;;36.75;33.00;;;;;;;;5022912;28;8816;-68
2023/01/07 16:08:01;;;;;;;;;36.25;35.50;;;;;;;;5028938;28;8953;-68
2023/01/07 16:10:28;;;;;;;;;43.25;38.25;;;;;;;;5028616;28;11724;-68
2023/01/07 16:13:00;;;;;;;;;40.25;34.25;;;;;;;;5025316;28;9596;-67
2023/01/07 16:15:30;;;;;;;;;37.75;34.75;;;;;;;;5023765;28;11560;-68
2023/01/07 16:17:55;;;;;;;;;44.00;38.00;;;;;;;;5028426;28;11523;-68
2023/01/07 16:20:41;;;;;;;;;35.50;33.50;;;;;;;;5020616;28;11587;-68
2023/01/07 16:23:09;;;;;;;;;39.00;32.75;;;;;;;;5016401;28;8843;-68
2023/01/07 16:25:36;;;;;;;;;36.25;32.25;;;;;;;;5022794;28;11548;-69
2023/01/07 16:28:02;;;;;;;;;31.25;28.25;;;;;;;;5028480;28;11590;-68
2023/01/07 16:30:27;;;;;;;;;34.50;33.75;;;;;;;;5027822;28;12250;-67
2023/01/07 16:32:53;;;;;;;;;56.00;44.00;;;;;;;;5028118;28;8899;-68
2023/01/07 16:35:37;;;;;;;;;57.33;45.00;;;;;;;;5022260;28;8874;-67
2023/01/07 16:38:03;;;;;;;;;44.75;37.00;;;;;;;;5027108;28;8796;-66
2023/01/07 16:40:32;;;;;;;;;30.25;28.25;;;;;;;;5027355;28;11522;-67
2023/01/07 16:42:57;;;;;;;;;21.50;20.25;;;;;;;;5027148;28;11721;-67
2023/01/07 16:45:24;;;;;;;;;36.75;31.25;;;;;;;;5022106;28;11537;-65
2023/01/07 16:48:00;;;;;;;;;29.50;24.50;;;;;;;;5027771;28;8828;-68
2023/01/07 16:50:29;;;;;;;;;27.25;25.25;;;;;;;;5026321;28;11677;-67
2023/01/07 16:52:55;;;;;;;;;36.75;30.75;;;;;;;;5025768;28;11540;-68
2023/01/07 16:55:39;;;;;;;;;30.25;27.75;;;;;;;;5017627;28;11618;-68
2023/01/07 16:58:13;;;;;;;;;40.00;33.00;;;;;;;;5015744;28;11556;-70
2023/01/07 17:00:46;;;;;;;;;32.25;30.75;;;;;;;;5017385;28;11557;-67
2023/01/07 17:03:12;;;;;;;;;30.25;26.00;;;;;;;;5017589;28;11572;-67
2023/01/07 17:05:37;;;;;;;;;28.50;25.00;;;;;;;;5014717;28;11539;-66
2023/01/07 17:08:15;;;;;;;;;28.25;25.25;;;;;;;;5018867;28;8803;-66
2023/01/07 17:10:43;;;;;;;;;25.25;25.00;;;;;;;;5019357;28;8795;-66
2023/01/07 17:13:12;;;;;;;;;22.75;21.25;;;;;;;;5024789;28;11546;-66
2023/01/07 17:15:39;;;;;;;;;21.00;20.50;;;;;;;;5016536;28;11688;-67
2023/01/07 17:18:11;;;;;;;;;24.00;20.25;;;;;;;;5021420;28;11584;-67
2023/01/07 17:20:47;;;;;;;;;22.25;20.25;;;;;;;;5028017;28;11674;-68
2023/01/07 17:23:25;;;;;;;;;30.00;25.75;;;;;;;;5020300;28;11559;-66
2023/01/07 17:25:57;;;;;;;;;25.50;22.00;;;;;;;;5018135;28;11615;-67
2023/01/07 17:28:24;;;;;;;;;29.25;22.25;;;;;;;;5018880;28;12340;-67
2023/01/07 17:30:49;;;;;;;;;30.25;25.75;;;;;;;;5021833;28;11178;-66
2023/01/07 17:33:15;;;;;;;;;21.25;20.75;;;;;;;;5022369;28;11638;-67
2023/01/07 17:35:44;;;;;;;;;23.50;22.00;;;;;;;;5018075;28;8851;-66
2023/01/07 17:38:11;;;;;;;;;24.75;21.25;;;;;;;;5022026;28;11649;-67
2023/01/07 17:40:37;;;;;;;;;26.25;25.50;;;;;;;;5020640;28;11571;-67
2023/01/07 17:45:46;;;;;;;;;24.75;22.50;;;;;;;;5019304;28;8791;-68
2023/01/07 17:48:12;;;;;;;;;34.25;28.75;;;;;;;;5020073;28;12315;-67
2023/01/07 17:50:37;;;;;;;;;34.00;26.25;;;;;;;;5020597;28;8794;-68
2023/01/07 17:53:03;;;;;;;;;30.00;26.00;;;;;;;;5022263;28;11613;-67
2023/01/07 17:55:30;;;;;;;;;40.25;34.50;;;;;;;;5019010;28;8830;-68
2023/01/07 17:57:55;;;;;;;;;31.50;28.00;;;;;;;;5020653;28;8835;-67
2023/01/07 18:00:22;;;;;;;;;29.25;28.75;;;;;;;;5021310;28;11607;-68
2023/01/07 18:02:48;;;;;;;;;20.00;16.50;;;;;;;;5021598;28;8812;-66
2023/01/07 18:05:15;;;;;;;;;32.00;26.25;;;;;;;;5024747;28;11570;-67
2023/01/07 18:07:40;;;;;;;;;32.25;28.00;;;;;;;;5031614;28;8885;-68
2023/01/07 18:10:06;;;;;;;;;32.00;28.00;;;;;;;;5021647;28;11564;-66
2023/01/07 18:12:32;;;;;;;;;32.50;29.75;;;;;;;;5022079;28;8808;-67
2023/01/07 18:15:02;;;;;;;;;37.50;29.75;;;;;;;;5019661;28;8827;-66
2023/01/07 18:17:27;;;;;;;;;30.25;25.00;;;;;;;;5020358;28;11706;-66
2023/01/07 18:19:53;;;;;;;;;37.75;27.75;;;;;;;;5019878;28;11684;-65
2023/01/07 18:22:19;;;;;;;;;35.25;32.75;;;;;;;;5021427;28;9569;-66
2023/01/07 18:24:45;;;;;;;;;35.50;30.00;;;;;;;;5021500;28;8838;-66
2023/01/07 18:27:16;;;;;;;;;47.50;40.00;;;;;;;;5016853;28;11677;-66
2023/01/07 18:29:42;;;;;;;;;36.50;30.75;;;;;;;;5011558;28;8798;-66
2023/01/07 18:32:07;;;;;;;;;30.50;29.25;;;;;;;;5011171;28;11576;-66
2023/01/07 18:34:32;;;;;;;;;34.25;30.00;;;;;;;;5011633;28;8802;-66
2023/01/07 18:36:58;;;;;;;;;102.25;85.50;;;;;;;;5011455;28;8810;-65
2023/01/07 18:39:23;;;;;;;;;82.67;64.00;;;;;;;;5015202;28;8965;-66
2023/01/07 18:41:49;;;;;;;;;60.33;46.33;;;;;;;;5020060;28;8787;-68
2023/01/07 18:44:17;;;;;;;;;58.67;46.67;;;;;;;;5017507;28;8822;-70
2023/01/07 18:46:42;;;;;;;;;70.00;55.67;;;;;;;;5009509;28;9565;-65
2023/01/07 18:49:09;;;;;;;;;65.00;51.33;;;;;;;;5008313;28;8833;-68
2023/01/07 18:51:34;;;;;;;;;70.67;55.00;;;;;;;;5010885;28;8838;-66
2023/01/07 18:53:59;;;;;;;;;126.25;110.25;;;;;;;;5011104;28;8802;-67
2023/01/07 18:56:24;;;;;;;;;209.00;189.00;;;;;;;;5011544;28;8814;-68
2023/01/07 18:58:53;;;;;;;;;83.33;65.00;;;;;;;;5010772;28;11595;-67
2023/01/07 19:01:18;;;;;;;;;80.67;63.33;;;;;;;;5008079;28;9537;-66
2023/01/07 19:03:44;;;;;;;;;77.33;59.33;;;;;;;;5010876;28;8876;-67
2023/01/07 19:06:09;;;;;;;;;75.00;59.33;;;;;;;;5020904;28;8822;-68
2023/01/07 19:08:34;;;;;;;;;80.33;62.67;;;;;;;;5019454;28;8815;-68
2023/01/07 19:11:00;;;;;;;;;94.25;83.00;;;;;;;;5019625;28;8845;-67
2023/01/07 19:13:25;;;;;;;;;95.25;79.75;;;;;;;;5020158;28;8800;-68
2023/01/07 19:15:50;;;;;;;;;89.75;73.75;;;;;;;;5021126;28;8855;-68
2023/01/07 19:18:16;;;;;;;;;79.33;61.33;;;;;;;;5018482;28;8818;-67
2023/01/07 19:20:41;;;;;;;;;78.00;62.67;;;;;;;;5010133;28;8862;-67
2023/01/07 19:23:06;;;;;;;;;81.67;63.67;;;;;;;;5016097;28;9004;-66
2023/01/07 19:25:32;;;;;;;;;75.33;59.00;;;;;;;;5010584;28;8876;-67
2023/01/07 19:27:57;;;;;;;;;71.00;57.33;;;;;;;;5010229;28;9916;-67
2023/01/07 19:30:23;;;;;;;;;73.00;58.00;;;;;;;;5003974;28;8807;-67
2023/01/07 19:32:49;;;;;;;;;70.33;58.00;;;;;;;;5008566;28;8807;-66
2023/01/07 19:35:15;;;;;;;;;65.00;55.00;;;;;;;;5009238;28;8838;-67
2023/01/07 19:37:40;;;;;;;;;75.33;58.67;;;;;;;;5010175;28;8814;-66
2023/01/07 19:40:06;;;;;;;;;73.33;58.67;;;;;;;;5005955;28;8858;-66
2023/01/07 19:42:31;;;;;;;;;72.00;55.67;;;;;;;;5010518;28;8830;-74
2023/01/07 19:44:57;;;;;;;;;78.00;58.00;;;;;;;;5010595;28;8850;-73
2023/01/07 19:47:22;;;;;;;;;72.00;58.00;;;;;;;;5010876;28;8810;-75
2023/01/07 19:49:47;;;;;;;;;73.00;59.00;;;;;;;;5008127;28;8834;-74
2023/01/07 19:52:13;;;;;;;;;69.67;56.33;;;;;;;;5010838;28;8805;-75
2023/01/07 19:54:38;;;;;;;;;59.67;49.33;;;;;;;;5010405;28;9745;-75
2023/01/07 19:57:03;;;;;;;;;64.00;51.00;;;;;;;;5010703;28;8880;-76
2023/01/07 19:59:30;;;;;;;;;65.33;50.67;;;;;;;;5008488;28;8820;-76
2023/01/07 20:01:55;;;;;;;;;67.33;53.00;;;;;;;;5008215;28;8861;-71
2023/01/07 20:04:20;;;;;;;;;65.00;51.33;;;;;;;;5011380;28;8810;-70
2023/01/07 20:06:46;;;;;;;;;65.67;52.00;;;;;;;;5009769;28;8814;-71
2023/01/07 20:09:12;;;;;;;;;64.33;52.33;;;;;;;;5008272;28;8818;-71
2023/01/07 20:11:38;;;;;;;;;70.67;53.00;;;;;;;;5009459;28;8901;-72
2023/01/07 20:14:03;;;;;;;;;73.00;57.33;;;;;;;;5010125;28;8811;-71
2023/01/07 20:16:29;;;;;;;;;79.67;59.67;;;;;;;;5009977;28;8859;-70
2023/01/07 20:18:54;;;;;;;;;72.67;56.67;;;;;;;;5009895;28;8788;-71
2023/01/07 20:21:24;;;;;;;;;78.67;60.67;;;;;;;;5007692;28;8794;-70
2023/01/07 20:23:49;;;;;;;;;78.67;60.67;;;;;;;;5009895;28;8779;-70
2023/01/07 20:26:17;;;;;;;;;74.33;60.00;;;;;;;;5009371;28;9588;-70
2023/01/07 20:28:42;;;;;;;;;75.33;59.67;;;;;;;;5010030;28;8795;-70
2023/01/07 20:31:09;;;;;;;;;81.00;61.33;;;;;;;;5006900;28;9914;-69
2023/01/07 20:33:35;;;;;;;;;71.00;59.00;;;;;;;;5009795;28;8893;-70
2023/01/07 20:36:02;;;;;;;;;78.00;60.67;;;;;;;;5010143;28;8842;-70
2023/01/07 20:38:27;;;;;;;;;119.00;112.50;;;;;;;;5009813;28;8810;-70
2023/01/07 20:40:52;;;;;;;;;83.67;64.67;;;;;;;;5007581;28;9535;-69
2023/01/07 20:43:18;;;;;;;;;68.67;52.00;;;;;;;;5009373;28;8895;-69
2023/01/07 20:45:44;;;;;;;;;66.33;53.67;;;;;;;;5009285;28;8820;-67
2023/01/07 20:48:11;;;;;;;;;69.33;56.67;;;;;;;;5009377;28;8800;-67
2023/01/07 20:50:40;;;;;;;;;60.67;47.00;;;;;;;;5007903;28;8816;-68
2023/01/07 20:53:05;;;;;;;;;120.50;107.75;;;;;;;;5008211;28;8803;-67
2023/01/07 20:55:31;;;;;;;;;89.67;70.00;;;;;;;;5009435;28;8908;-67
2023/01/07 20:57:56;;;;;;;;;78.00;60.00;;;;;;;;5023930;28;8957;-69
2023/01/07 21:00:22;;;;;;;;;75.00;59.67;;;;;;;;5008719;28;8868;-68
2023/01/07 21:02:47;;;;;;;;;81.67;61.00;;;;;;;;5007499;28;8866;-70
2023/01/07 21:05:13;;;;;;;;;84.00;62.67;;;;;;;;5009354;28;8817;-69
2023/01/07 21:07:39;;;;;;;;;92.50;72.50;;;;;;;;5007867;28;8849;-70
2023/01/07 21:10:04;;;;;;;;;75.00;59.67;;;;;;;;5009260;28;8980;-68
2023/01/07 21:12:30;;;;;;;;;83.00;60.33;;;;;;;;5009251;28;8834;-69
2023/01/07 21:14:55;;;;;;;;;81.67;59.00;;;;;;;;5008800;28;8849;-69
2023/01/07 21:17:20;;;;;;;;;79.67;61.67;;;;;;;;5007875;28;8818;-69
2023/01/07 21:19:45;;;;;;;;;75.33;60.33;;;;;;;;5009025;28;8819;-68
2023/01/07 21:22:11;;;;;;;;;68.67;55.33;;;;;;;;5009147;28;8814;-68
2023/01/07 21:24:36;;;;;;;;;74.33;58.33;;;;;;;;5009325;28;8830;-68
2023/01/07 21:27:01;;;;;;;;;72.33;58.00;;;;;;;;5008798;28;8834;-67
2023/01/07 21:29:27;;;;;;;;;67.00;54.33;;;;;;;;5008500;28;8803;-68
2023/01/07 21:31:52;;;;;;;;;71.33;55.33;;;;;;;;5008624;28;9006;-67
2023/01/07 21:34:17;;;;;;;;;69.33;56.00;;;;;;;;5009322;28;8786;-67
2023/01/07 21:36:43;;;;;;;;;69.00;54.67;;;;;;;;5016560;28;9566;-68
2023/01/07 21:39:10;;;;;;;;;71.67;57.00;;;;;;;;5017355;28;9534;-68
2023/01/07 21:41:35;;;;;;;;;77.33;63.33;;;;;;;;5018860;28;8812;-68
2023/01/07 21:44:00;;;;;;;;;78.00;58.67;;;;;;;;5016542;28;8808;-68
2023/01/07 21:46:26;;;;;;;;;82.33;61.00;;;;;;;;5008141;28;8916;-69
2023/01/07 21:48:51;;;;;;;;;80.00;61.33;;;;;;;;5008855;28;8806;-67
2023/01/07 21:51:21;;;;;;;;;75.00;60.00;;;;;;;;5008701;28;8814;-68
2023/01/07 21:53:46;;;;;;;;;76.00;61.00;;;;;;;;5007288;28;8923;-68
2023/01/07 21:56:13;;;;;;;;;81.67;63.00;;;;;;;;5008589;28;8933;-67
2023/01/07 21:58:39;;;;;;;;;82.67;62.33;;;;;;;;5008644;28;8807;-67
2023/01/07 22:01:05;;;;;;;;;72.67;56.33;;;;;;;;5007995;28;9008;-67
2023/01/07 22:03:31;;;;;;;;;80.67;63.67;;;;;;;;5010064;28;8834;-68
2023/01/07 22:05:57;;;;;;;;;84.00;66.00;;;;;;;;5012111;28;8892;-67
2023/01/07 22:08:23;;;;;;;;;81.33;62.33;;;;;;;;5012003;28;8790;-67
2023/01/07 22:10:48;;;;;;;;;81.67;64.00;;;;;;;;5012158;28;8802;-66
2023/01/07 22:13:13;;;;;;;;;76.33;62.33;;;;;;;;5011813;28;8900;-66
2023/01/07 22:15:39;;;;;;;;;79.33;61.33;;;;;;;;5012911;28;8850;-68
2023/01/07 22:18:04;;;;;;;;;83.67;65.67;;;;;;;;5011257;28;8832;-68
2023/01/07 22:20:29;;;;;;;;;81.67;63.33;;;;;;;;5011902;28;8912;-67
2023/01/07 22:22:55;;;;;;;;;83.00;63.33;;;;;;;;5012094;28;8830;-67
2023/01/07 22:25:20;;;;;;;;;76.67;61.67;;;;;;;;5010528;28;8822;-67
2023/01/07 22:27:45;;;;;;;;;80.67;61.00;;;;;;;;5011792;28;8774;-67
2023/01/07 22:30:11;;;;;;;;;79.67;60.67;;;;;;;;5011355;28;8908;-68
2023/01/07 22:32:37;;;;;;;;;43.33;36.00;;;;;;;;5011638;28;9039;-67
2023/01/07 22:35:03;;;;;;;;;78.00;61.00;;;;;;;;5010447;28;8850;-68
2023/01/07 22:37:28;;;;;;;;;79.00;61.00;;;;;;;;5010023;28;8826;-67
2023/01/07 22:39:57;;;;;;;;;78.00;60.00;;;;;;;;5011433;28;8906;-67
2023/01/07 22:42:35;;;;;;;;;81.33;63.00;;;;;;;;5011402;28;8832;-68
2023/01/07 22:45:06;;;;;;;;;67.33;54.67;;;;;;;;5011329;28;9549;-67
2023/01/07 22:47:34;;;;;;;;;67.33;55.00;;;;;;;;5011503;28;8864;-68
2023/01/07 22:50:01;;;;;;;;;72.00;55.00;;;;;;;;5011349;28;8786;-68
2023/01/07 22:52:26;;;;;;;;;64.33;51.67;;;;;;;;5010448;28;8786;-68
2023/01/07 22:54:52;;;;;;;;;69.00;56.33;;;;;;;;5010641;28;8921;-68
2023/01/07 22:57:17;;;;;;;;;69.33;54.33;;;;;;;;5009520;28;8807;-68
2023/01/07 22:59:42;;;;;;;;;68.00;52.33;;;;;;;;5010705;28;8818;-68
2023/01/07 23:02:11;;;;;;;;;68.67;55.00;;;;;;;;5010472;28;8830;-68
2023/01/07 23:04:36;;;;;;;;;68.67;54.00;;;;;;;;5009473;28;8925;-68
2023/01/07 23:07:02;;;;;;;;;56.67;43.33;;;;;;;;5010225;28;8818;-68
2023/01/07 23:09:27;;;;;;;;;73.00;55.33;;;;;;;;5011510;28;8799;-67
2023/01/07 23:11:58;;;;;;;;;68.00;54.67;;;;;;;;5011398;28;8790;-68
2023/01/07 23:14:24;;;;;;;;;69.67;54.67;;;;;;;;5011413;28;8810;-68
2023/01/07 23:16:50;;;;;;;;;70.00;54.67;;;;;;;;5011313;28;9563;-68
2023/01/07 23:19:16;;;;;;;;;64.00;52.67;;;;;;;;5011088;28;8779;-68
2023/01/07 23:21:42;;;;;;;;;68.67;51.00;;;;;;;;5011054;28;8786;-69
2023/01/07 23:24:08;;;;;;;;;43.67;36.67;;;;;;;;5011132;28;8813;-69
2023/01/07 23:26:33;;;;;;;;;65.00;53.33;;;;;;;;5010917;28;8806;-69
2023/01/07 23:28:58;;;;;;;;;66.00;50.67;;;;;;;;5011181;28;8787;-69
2023/01/07 23:31:23;;;;;;;;;65.67;51.67;;;;;;;;5010758;28;8848;-69
2023/01/07 23:33:49;;;;;;;;;62.67;52.00;;;;;;;;5010999;28;8810;-68
2023/01/07 23:36:14;;;;;;;;;64.67;52.33;;;;;;;;5010826;28;8838;-68
2023/01/07 23:38:39;;;;;;;;;66.00;51.33;;;;;;;;5010896;28;8807;-69
2023/01/07 23:41:06;;;;;;;;;57.00;44.00;;;;;;;;5010606;28;8810;-68
2023/01/07 23:43:31;;;;;;;;;60.33;49.00;;;;;;;;5009407;28;8837;-68